Time;durP1;ratioP1;P1;durP2;ratioP2;P2;SDS_P1;SDS_P2;PMS_P1;PMS_P2;Temp;Humidity;BMP_temperature;BMP_pressure;BME280_temperature;BME280_humidity;BME280_pressure;Samples;Min_cycle;Max_cycle;Signal;HPM_P1;HPM_P2
2022/02/27 00:06:25;;;;;;;;;3.50;3.50;;;;;;;;2;261074394;261074394;-85
2022/02/27 00:15:25;;;;;;;;;5.00;5.00;;;;;;;;2;261073284;261073284;-85
2022/02/27 00:23:41;;;;;;;;;20.00;9.00;;;;;;;;2;261079287;261079287;-84
2022/02/27 00:32:41;;;;;;;;;3.00;3.00;;;;;;;;2;261074098;261074098;-84
2022/02/27 00:40:56;;;;;;;;;9.00;9.00;;;;;;;;2;261075840;261075840;-85
2022/02/27 00:49:57;;;;;;;;;3.00;3.00;;;;;;;;2;261074588;261074588;-84
2022/02/27 00:58:12;;;;;;;;;3.00;3.00;;;;;;;;2;261071376;261071376;-84
2022/02/27 01:07:13;;;;;;;;;7.50;7.50;;;;;;;;2;261074880;261074880;-84
2022/02/27 01:15:28;;;;;;;;;14.00;10.50;;;;;;;;2;261076079;261076079;-85
2022/02/27 01:24:29;;;;;;;;;5.00;5.00;;;;;;;;2;261076310;261076310;-84
2022/02/27 01:32:44;;;;;;;;;7.00;7.00;;;;;;;;2;261076233;261076233;-83
2022/02/27 01:41:45;;;;;;;;;11.50;3.50;;;;;;;;2;261075257;261075257;-83
2022/02/27 01:50:01;;;;;;;;;8.50;8.50;;;;;;;;2;261073064;261073064;-83
2022/02/27 01:59:01;;;;;;;;;4.00;4.00;;;;;;;;2;261077223;261077223;-84
2022/02/27 02:07:17;;;;;;;;;7.50;3.50;;;;;;;;2;261074981;261074981;-85
2022/02/27 02:16:17;;;;;;;;;14.50;5.50;;;;;;;;2;261075968;261075968;-85
2022/02/27 02:24:32;;;;;;;;;2.50;2.50;;;;;;;;2;261070087;261070087;-85
2022/02/27 02:33:34;;;;;;;;;1.50;1.50;;;;;;;;2;261075664;261075664;-85
2022/02/27 02:41:49;;;;;;;;;16.50;5.50;;;;;;;;2;261075725;261075725;-85
2022/02/27 02:50:50;;;;;;;;;4.50;4.50;;;;;;;;2;261076103;261076103;-84
2022/02/27 02:59:05;;;;;;;;;3.50;3.50;;;;;;;;2;261074166;261074166;-85
2022/02/27 03:08:06;;;;;;;;;4.00;4.00;;;;;;;;2;261076196;261076196;-85
2022/02/27 03:16:21;;;;;;;;;6.50;6.50;;;;;;;;2;261077003;261077003;-84
2022/02/27 03:25:22;;;;;;;;;3.00;3.00;;;;;;;;2;261077581;261077581;-84
2022/02/27 03:33:37;;;;;;;;;6.50;6.50;;;;;;;;2;261079020;261079020;-86
2022/02/27 03:42:38;;;;;;;;;6.00;6.00;;;;;;;;2;261073024;261073024;-85
2022/02/27 03:50:53;;;;;;;;;3.00;3.00;;;;;;;;2;261069072;261069072;-85
2022/02/27 03:59:53;;;;;;;;;7.00;3.00;;;;;;;;2;261073323;261073323;-86
2022/02/27 04:08:09;;;;;;;;;12.50;4.00;;;;;;;;2;261077445;261077445;-84
2022/02/27 04:17:09;;;;;;;;;3.00;3.00;;;;;;;;2;261078899;261078899;-85
2022/02/27 04:25:25;;;;;;;;;3.00;3.00;;;;;;;;2;261073343;261073343;-85
2022/02/27 04:34:25;;;;;;;;;2.00;2.00;;;;;;;;2;261076565;261076565;-83
2022/02/27 04:42:41;;;;;;;;;4.00;4.00;;;;;;;;2;261076802;261076802;-85
2022/02/27 04:51:41;;;;;;;;;1.50;1.50;;;;;;;;2;261075082;261075082;-85
2022/02/27 04:59:57;;;;;;;;;1.50;1.50;;;;;;;;2;261075314;261075314;-85
2022/02/27 05:08:57;;;;;;;;;5.50;4.00;;;;;;;;2;261075505;261075505;-84
2022/02/27 05:17:13;;;;;;;;;2.50;2.50;;;;;;;;2;261076882;261076882;-85
2022/02/27 05:26:13;;;;;;;;;3.50;3.50;;;;;;;;2;261074225;261074225;-85
2022/02/27 05:34:28;;;;;;;;;1.00;1.00;;;;;;;;2;261074773;261074773;-84
2022/02/27 05:43:29;;;;;;;;;3.00;3.00;;;;;;;;2;261075195;261075195;-85
2022/02/27 05:51:47;;;;;;;;;2.00;2.00;;;;;;;;2;261076974;261076974;-84
2022/02/27 06:00:48;;;;;;;;;4.00;4.00;;;;;;;;2;261074818;261074818;-84
2022/02/27 06:09:03;;;;;;;;;7.50;3.50;;;;;;;;2;261077243;261077243;-83
2022/02/27 06:18:04;;;;;;;;;2.00;2.00;;;;;;;;2;261075398;261075398;-83
2022/02/27 06:26:19;;;;;;;;;2.00;2.00;;;;;;;;2;261076396;261076396;-83
2022/02/27 06:35:21;;;;;;;;;4.00;4.00;;;;;;;;2;261076447;261076447;-83
2022/02/27 06:43:37;;;;;;;;;3.00;3.00;;;;;;;;2;261073205;261073205;-83
2022/02/27 06:52:38;;;;;;;;;2.50;2.50;;;;;;;;2;261073982;261073982;-83
2022/02/27 07:00:53;;;;;;;;;2.50;2.50;;;;;;;;2;261075873;261075873;-83
2022/02/27 07:10:00;;;;;;;;;1.00;1.00;;;;;;;;2;261074432;261074432;-84
2022/02/27 07:18:15;;;;;;;;;2.00;2.00;;;;;;;;2;261077904;261077904;-84
2022/02/27 07:27:15;;;;;;;;;5.50;5.50;;;;;;;;2;261070971;261070971;-84
2022/02/27 07:35:31;;;;;;;;;3.00;3.00;;;;;;;;2;261075223;261075223;-84
2022/02/27 07:44:31;;;;;;;;;3.00;3.00;;;;;;;;2;261075482;261075482;-84
2022/02/27 07:52:47;;;;;;;;;3.00;3.00;;;;;;;;2;261069887;261069887;-85
2022/02/27 08:01:47;;;;;;;;;18.00;4.50;;;;;;;;2;261075567;261075567;-84
2022/02/27 08:10:03;;;;;;;;;3.00;3.00;;;;;;;;2;261074969;261074969;-85
2022/02/27 08:19:03;;;;;;;;;5.00;5.00;;;;;;;;2;261073622;261073622;-85
2022/02/27 08:27:19;;;;;;;;;3.50;3.50;;;;;;;;2;261076272;261076272;-85
2022/02/27 08:36:19;;;;;;;;;9.00;0.50;;;;;;;;2;261080250;261080250;-85
2022/02/27 08:44:35;;;;;;;;;5.50;1.50;;;;;;;;2;261076595;261076595;-85
2022/02/27 08:53:35;;;;;;;;;3.50;3.50;;;;;;;;2;261076960;261076960;-85
2022/02/27 09:01:51;;;;;;;;;2.50;2.50;;;;;;;;2;261076643;261076643;-86
2022/02/27 09:10:51;;;;;;;;;5.50;5.50;;;;;;;;2;261074505;261074505;-85
2022/02/27 09:19:06;;;;;;;;;14.50;3.50;;;;;;;;2;261072081;261072081;-85
2022/02/27 09:28:07;;;;;;;;;2.00;2.00;;;;;;;;2;261077929;261077929;-84
2022/02/27 09:36:26;;;;;;;;;2.00;2.00;;;;;;;;2;261076051;261076051;-85
2022/02/27 09:45:26;;;;;;;;;4.00;4.00;;;;;;;;2;261076907;261076907;-85
2022/02/27 09:53:42;;;;;;;;;5.00;5.00;;;;;;;;2;261079624;261079624;-85
2022/02/27 10:03:01;;;;;;;;;0.50;0.50;;;;;;;;2;261076228;261076228;-84
2022/02/27 10:11:17;;;;;;;;;3.50;3.50;;;;;;;;2;261075479;261075479;-84
2022/02/27 10:20:18;;;;;;;;;2.00;2.00;;;;;;;;2;261074452;261074452;-86
2022/02/27 10:28:34;;;;;;;;;4.00;4.00;;;;;;;;2;261072790;261072790;-85
2022/02/27 10:37:35;;;;;;;;;0.50;0.50;;;;;;;;2;261076913;261076913;-86
2022/02/27 10:46:01;;;;;;;;;2.00;2.00;;;;;;;;2;261077899;261077899;-86
2022/02/27 10:55:06;;;;;;;;;5.50;5.50;;;;;;;;2;261076985;261076985;-85
2022/02/27 11:03:23;;;;;;;;;2.50;2.50;;;;;;;;2;261077389;261077389;-86
2022/02/27 11:12:24;;;;;;;;;7.00;1.50;;;;;;;;2;261076838;261076838;-86
2022/02/27 11:20:41;;;;;;;;;12.50;7.00;;;;;;;;2;261073890;261073890;-86
2022/02/27 11:29:46;;;;;;;;;4.50;4.50;;;;;;;;2;261074375;261074375;-86
2022/02/27 11:38:03;;;;;;;;;19.00;7.00;;;;;;;;2;261076889;261076889;-86
2022/02/27 11:47:08;;;;;;;;;14.00;6.50;;;;;;;;2;261075744;261075744;-86
2022/02/27 11:55:41;;;;;;;;;18.00;7.00;;;;;;;;2;261073918;261073918;-86
2022/02/27 12:04:49;;;;;;;;;10.00;6.50;;;;;;;;2;261078906;261078906;-85
2022/02/27 12:13:23;;;;;;;;;4.00;4.00;;;;;;;;2;261075575;261075575;-86
2022/02/27 12:22:42;;;;;;;;;6.50;6.50;;;;;;;;2;261074661;261074661;-86
2022/02/27 12:30:57;;;;;;;;;5.50;5.50;;;;;;;;2;261075710;261075710;-85
2022/02/27 12:39:59;;;;;;;;;10.00;10.00;;;;;;;;2;261075409;261075409;-85
2022/02/27 12:48:18;;;;;;;;;19.50;8.00;;;;;;;;2;261076642;261076642;-86
2022/02/27 12:57:19;;;;;;;;;11.00;8.50;;;;;;;;2;261073892;261073892;-85
2022/02/27 13:05:34;;;;;;;;;9.00;9.00;;;;;;;;2;261075759;261075759;-86
2022/02/27 13:14:35;;;;;;;;;4.50;4.50;;;;;;;;2;261076770;261076770;-85
2022/02/27 13:22:52;;;;;;;;;3.00;3.00;;;;;;;;2;261077292;261077292;-85
2022/02/27 13:31:52;;;;;;;;;4.50;4.50;;;;;;;;2;261075937;261075937;-86
2022/02/27 13:40:15;;;;;;;;;3.00;3.00;;;;;;;;2;261075722;261075722;-85
2022/02/27 13:49:21;;;;;;;;;5.00;5.00;;;;;;;;2;261076457;261076457;-85
2022/02/27 13:57:37;;;;;;;;;3.50;3.50;;;;;;;;2;261074171;261074171;-85
2022/02/27 14:06:37;;;;;;;;;8.00;8.00;;;;;;;;2;261073550;261073550;-85
2022/02/27 14:14:52;;;;;;;;;4.00;4.00;;;;;;;;2;261076784;261076784;-85
2022/02/27 14:23:56;;;;;;;;;8.00;8.00;;;;;;;;2;261074295;261074295;-86
2022/02/27 14:32:29;;;;;;;;;10.50;6.50;;;;;;;;2;261078025;261078025;-84
2022/02/27 14:41:30;;;;;;;;;3.00;3.00;;;;;;;;2;261073914;261073914;-85
2022/02/27 14:49:45;;;;;;;;;9.00;9.00;;;;;;;;2;261075274;261075274;-85
2022/02/27 14:58:46;;;;;;;;;10.00;10.00;;;;;;;;2;261071491;261071491;-85
2022/02/27 15:07:01;;;;;;;;;9.50;9.50;;;;;;;;2;261077758;261077758;-85
2022/02/27 15:16:03;;;;;;;;;9.00;9.00;;;;;;;;2;261075147;261075147;-86
2022/02/27 15:24:19;;;;;;;;;3.50;3.50;;;;;;;;2;261075567;261075567;-86
2022/02/27 15:33:19;;;;;;;;;4.50;4.50;;;;;;;;2;261077825;261077825;-85
2022/02/27 15:41:35;;;;;;;;;17.00;5.00;;;;;;;;2;261073928;261073928;-86
2022/02/27 15:50:35;;;;;;;;;4.50;4.50;;;;;;;;2;261076141;261076141;-86
2022/02/27 15:58:51;;;;;;;;;8.00;8.00;;;;;;;;2;261074345;261074345;-86
2022/02/27 16:07:51;;;;;;;;;8.50;6.50;;;;;;;;2;261074359;261074359;-86
2022/02/27 16:16:06;;;;;;;;;10.00;10.00;;;;;;;;2;261076274;261076274;-85
2022/02/27 16:25:07;;;;;;;;;7.00;7.00;;;;;;;;2;261074868;261074868;-85
2022/02/27 16:33:22;;;;;;;;;16.50;16.50;;;;;;;;2;261074024;261074024;-85
2022/02/27 16:42:23;;;;;;;;;6.50;6.50;;;;;;;;2;261071127;261071127;-85
2022/02/27 16:50:38;;;;;;;;;5.50;5.50;;;;;;;;2;261075996;261075996;-85
2022/02/27 16:59:42;;;;;;;;;8.00;5.50;;;;;;;;2;261072265;261072265;-85
2022/02/27 17:07:58;;;;;;;;;5.50;5.50;;;;;;;;2;261073826;261073826;-86
2022/02/27 17:16:58;;;;;;;;;10.00;8.00;;;;;;;;2;261077674;261077674;-86
2022/02/27 17:25:14;;;;;;;;;7.00;7.00;;;;;;;;2;261075691;261075691;-86
2022/02/27 17:34:14;;;;;;;;;5.50;5.50;;;;;;;;2;261075802;261075802;-86
2022/02/27 17:42:29;;;;;;;;;15.50;15.50;;;;;;;;2;261074843;261074843;-86
2022/02/27 17:51:30;;;;;;;;;16.50;8.50;;;;;;;;2;261075185;261075185;-86
2022/02/27 17:59:46;;;;;;;;;10.50;10.50;;;;;;;;2;261076195;261076195;-85
2022/02/27 18:08:46;;;;;;;;;11.00;11.00;;;;;;;;2;261075067;261075067;-86
2022/02/27 18:17:02;;;;;;;;;14.00;9.00;;;;;;;;2;261074983;261074983;-85
2022/02/27 18:26:03;;;;;;;;;16.00;14.50;;;;;;;;2;261075451;261075451;-85
2022/02/27 18:34:18;;;;;;;;;11.50;11.50;;;;;;;;2;261075322;261075322;-85
2022/02/27 18:43:19;;;;;;;;;1.00;1.00;;;;;;;;2;261073925;261073925;-84
2022/02/27 18:51:34;;;;;;;;;27.50;13.00;;;;;;;;2;261075777;261075777;-85
2022/02/27 19:00:35;;;;;;;;;11.50;7.50;;;;;;;;2;261073780;261073780;-84
2022/02/27 19:08:50;;;;;;;;;11.50;11.50;;;;;;;;2;261073365;261073365;-85
2022/02/27 19:17:52;;;;;;;;;9.50;9.50;;;;;;;;2;261075455;261075455;-85
2022/02/27 19:26:08;;;;;;;;;10.00;10.00;;;;;;;;2;261074967;261074967;-85
2022/02/27 19:35:09;;;;;;;;;17.00;8.50;;;;;;;;2;261076040;261076040;-85
2022/02/27 19:43:29;;;;;;;;;12.50;12.50;;;;;;;;2;261073693;261073693;-85
2022/02/27 19:52:30;;;;;;;;;12.00;12.00;;;;;;;;2;261076615;261076615;-85
2022/02/27 20:00:45;;;;;;;;;15.00;15.00;;;;;;;;2;261075734;261075734;-85
2022/02/27 20:18:20;;;;;;;;;25.50;17.50;;;;;;;;2;261075672;261075672;-85
2022/02/27 20:27:21;;;;;;;;;22.50;14.00;;;;;;;;2;261075520;261075520;-85
2022/02/27 20:35:37;;;;;;;;;11.00;11.00;;;;;;;;2;261075143;261075143;-85
2022/02/27 20:44:37;;;;;;;;;12.00;12.00;;;;;;;;2;261076195;261076195;-86
2022/02/27 20:52:52;;;;;;;;;20.00;14.50;;;;;;;;2;261075383;261075383;-85
2022/02/27 21:01:53;;;;;;;;;15.50;15.50;;;;;;;;2;261073039;261073039;-86
2022/02/27 21:10:09;;;;;;;;;14.50;14.50;;;;;;;;2;261070951;261070951;-86
2022/02/27 21:19:10;;;;;;;;;15.50;11.50;;;;;;;;2;261075554;261075554;-85
2022/02/27 21:27:26;;;;;;;;;21.50;21.50;;;;;;;;2;261074980;261074980;-85
2022/02/27 21:36:26;;;;;;;;;13.00;13.00;;;;;;;;2;261077076;261077076;-85
2022/02/27 21:44:42;;;;;;;;;9.00;9.00;;;;;;;;2;261073798;261073798;-85
2022/02/27 21:53:42;;;;;;;;;22.50;22.50;;;;;;;;2;261076607;261076607;-85
2022/02/27 22:01:58;;;;;;;;;24.00;22.50;;;;;;;;2;261076727;261076727;-85
2022/02/27 22:10:59;;;;;;;;;26.00;14.50;;;;;;;;2;261073944;261073944;-85
2022/02/27 22:19:14;;;;;;;;;20.00;16.00;;;;;;;;2;261076129;261076129;-85
2022/02/27 22:28:19;;;;;;;;;14.00;14.00;;;;;;;;2;261074948;261074948;-85
2022/02/27 22:36:35;;;;;;;;;14.50;14.50;;;;;;;;2;261077248;261077248;-85
2022/02/27 22:45:35;;;;;;;;;18.00;16.50;;;;;;;;2;261076718;261076718;-85
2022/02/27 22:53:51;;;;;;;;;12.00;12.00;;;;;;;;2;261073367;261073367;-85
2022/02/27 23:02:51;;;;;;;;;9.50;9.50;;;;;;;;2;261077057;261077057;-85
2022/02/27 23:11:11;;;;;;;;;18.50;6.50;;;;;;;;2;261073128;261073128;-85
2022/02/27 23:20:11;;;;;;;;;21.50;13.50;;;;;;;;2;261074457;261074457;-84
2022/02/27 23:28:27;;;;;;;;;16.00;13.00;;;;;;;;2;261077887;261077887;-85
2022/02/27 23:37:27;;;;;;;;;15.50;13.00;;;;;;;;2;261075574;261075574;-85
2022/02/27 23:45:43;;;;;;;;;14.00;12.50;;;;;;;;2;261075476;261075476;-85
2022/02/27 23:58:03;;;;;;;;;5.50;5.50;;;;;;;;2;261076021;261076021;-85
